sensor_id;sensor_type;location;lat;lon;timestamp;P1;durP1;ratioP1;P2;durP2;ratioP2
51451;SDS011;37521;52.020;-1.740;2022-08-19T00:01:45;0.55;;;0.55;;
51451;SDS011;37521;52.020;-1.740;2022-08-19T00:04:19;0.63;;;0.63;;
51451;SDS011;37521;52.020;-1.740;2022-08-19T00:06:50;0.90;;;0.90;;
51451;SDS011;37521;52.020;-1.740;2022-08-19T00:09:19;0.88;;;0.73;;
51451;SDS011;37521;52.020;-1.740;2022-08-19T00:11:49;0.70;;;0.65;;
51451;SDS011;37521;52.020;-1.740;2022-08-19T00:14:18;0.60;;;0.60;;
51451;SDS011;37521;52.020;-1.740;2022-08-19T00:16:49;0.60;;;0.60;;
51451;SDS011;37521;52.020;-1.740;2022-08-19T00:19:21;0.82;;;0.73;;
51451;SDS011;37521;52.020;-1.740;2022-08-19T00:21:50;0.80;;;0.65;;
51451;SDS011;37521;52.020;-1.740;2022-08-19T00:24:18;0.60;;;0.60;;
51451;SDS011;37521;52.020;-1.740;2022-08-19T00:26:46;0.75;;;0.70;;
51451;SDS011;37521;52.020;-1.740;2022-08-19T00:29:15;1.92;;;1.02;;
51451;SDS011;37521;52.020;-1.740;2022-08-19T00:31:46;0.73;;;0.73;;
51451;SDS011;37521;52.020;-1.740;2022-08-19T00:34:17;1.58;;;0.80;;
51451;SDS011;37521;52.020;-1.740;2022-08-19T00:36:46;0.68;;;0.52;;
51451;SDS011;37521;52.020;-1.740;2022-08-19T00:39:16;0.65;;;0.65;;
51451;SDS011;37521;52.020;-1.740;2022-08-19T00:41:45;0.80;;;0.80;;
51451;SDS011;37521;52.020;-1.740;2022-08-19T00:44:16;0.70;;;0.70;;
51451;SDS011;37521;52.020;-1.740;2022-08-19T00:46:53;1.02;;;0.82;;
51451;SDS011;37521;52.020;-1.740;2022-08-19T00:49:27;0.77;;;0.70;;
51451;SDS011;37521;52.020;-1.740;2022-08-19T00:52:00;2.67;;;0.88;;
51451;SDS011;37521;52.020;-1.740;2022-08-19T00:54:32;1.95;;;1.00;;
51451;SDS011;37521;52.020;-1.740;2022-08-19T00:57:01;1.38;;;1.27;;
51451;SDS011;37521;52.020;-1.740;2022-08-19T00:59:33;2.67;;;1.15;;
51451;SDS011;37521;52.020;-1.740;2022-08-19T01:02:24;1.38;;;1.13;;
51451;SDS011;37521;52.020;-1.740;2022-08-19T01:04:55;3.00;;;1.55;;
51451;SDS011;37521;52.020;-1.740;2022-08-19T01:07:23;1.83;;;1.02;;
51451;SDS011;37521;52.020;-1.740;2022-08-19T01:09:52;1.33;;;1.15;;
51451;SDS011;37521;52.020;-1.740;2022-08-19T01:12:21;1.45;;;1.15;;
51451;SDS011;37521;52.020;-1.740;2022-08-19T01:14:49;1.30;;;1.20;;
51451;SDS011;37521;52.020;-1.740;2022-08-19T01:17:19;1.20;;;1.08;;
51451;SDS011;37521;52.020;-1.740;2022-08-19T01:19:48;1.20;;;1.10;;
51451;SDS011;37521;52.020;-1.740;2022-08-19T01:22:19;2.53;;;1.30;;
51451;SDS011;37521;52.020;-1.740;2022-08-19T01:24:59;1.80;;;1.15;;
51451;SDS011;37521;52.020;-1.740;2022-08-19T01:27:36;0.90;;;0.90;;
51451;SDS011;37521;52.020;-1.740;2022-08-19T01:30:11;0.98;;;0.80;;
51451;SDS011;37521;52.020;-1.740;2022-08-19T01:32:42;1.02;;;0.60;;
51451;SDS011;37521;52.020;-1.740;2022-08-19T01:35:11;0.93;;;0.80;;
51451;SDS011;37521;52.020;-1.740;2022-08-19T01:37:43;1.33;;;0.73;;
51451;SDS011;37521;52.020;-1.740;2022-08-19T01:40:14;0.98;;;0.85;;
51451;SDS011;37521;52.020;-1.740;2022-08-19T01:42:42;0.55;;;0.47;;
51451;SDS011;37521;52.020;-1.740;2022-08-19T01:45:11;1.42;;;0.38;;
51451;SDS011;37521;52.020;-1.740;2022-08-19T01:47:39;0.93;;;0.50;;
51451;SDS011;37521;52.020;-1.740;2022-08-19T01:50:08;0.40;;;0.38;;
51451;SDS011;37521;52.020;-1.740;2022-08-19T01:52:38;1.35;;;0.20;;
51451;SDS011;37521;52.020;-1.740;2022-08-19T01:55:09;0.38;;;0.30;;
51451;SDS011;37521;52.020;-1.740;2022-08-19T01:57:39;0.22;;;0.22;;
51451;SDS011;37521;52.020;-1.740;2022-08-19T02:00:11;0.20;;;0.20;;
51451;SDS011;37521;52.020;-1.740;2022-08-19T02:02:42;1.00;;;0.20;;
51451;SDS011;37521;52.020;-1.740;2022-08-19T02:05:11;0.30;;;0.30;;
51451;SDS011;37521;52.020;-1.740;2022-08-19T02:07:40;0.30;;;0.10;;
51451;SDS011;37521;52.020;-1.740;2022-08-19T02:10:11;0.15;;;0.13;;
51451;SDS011;37521;52.020;-1.740;2022-08-19T02:12:42;0.20;;;0.10;;
51451;SDS011;37521;52.020;-1.740;2022-08-19T02:15:13;0.20;;;0.20;;
51451;SDS011;37521;52.020;-1.740;2022-08-19T02:17:41;0.08;;;0.05;;
51451;SDS011;37521;52.020;-1.740;2022-08-19T02:20:10;1.02;;;0.10;;
51451;SDS011;37521;52.020;-1.740;2022-08-19T02:22:40;0.15;;;0.13;;
51451;SDS011;37521;52.020;-1.740;2022-08-19T02:25:11;0.10;;;0.10;;
51451;SDS011;37521;52.020;-1.740;2022-08-19T02:27:41;0.13;;;0.13;;
51451;SDS011;37521;52.020;-1.740;2022-08-19T02:30:13;0.30;;;0.20;;
51451;SDS011;37521;52.020;-1.740;2022-08-19T02:32:45;0.25;;;0.17;;
51451;SDS011;37521;52.020;-1.740;2022-08-19T02:35:14;0.80;;;0.40;;
51451;SDS011;37521;52.020;-1.740;2022-08-19T02:37:43;0.55;;;0.30;;
51451;SDS011;37521;52.020;-1.740;2022-08-19T02:40:30;0.20;;;0.20;;
51451;SDS011;37521;52.020;-1.740;2022-08-19T02:43:01;0.15;;;0.10;;
51451;SDS011;37521;52.020;-1.740;2022-08-19T02:45:31;0.10;;;0.10;;
51451;SDS011;37521;52.020;-1.740;2022-08-19T02:47:59;0.10;;;0.10;;
51451;SDS011;37521;52.020;-1.740;2022-08-19T02:50:37;0.30;;;0.30;;
51451;SDS011;37521;52.020;-1.740;2022-08-19T02:53:17;0.30;;;0.10;;
51451;SDS011;37521;52.020;-1.740;2022-08-19T02:55:46;0.45;;;0.40;;
51451;SDS011;37521;52.020;-1.740;2022-08-19T02:58:15;0.60;;;0.60;;
51451;SDS011;37521;52.020;-1.740;2022-08-19T03:00:45;0.55;;;0.50;;
51451;SDS011;37521;52.020;-1.740;2022-08-19T03:03:16;0.75;;;0.50;;
51451;SDS011;37521;52.020;-1.740;2022-08-19T03:05:45;0.50;;;0.50;;
51451;SDS011;37521;52.020;-1.740;2022-08-19T03:08:22;0.40;;;0.40;;
51451;SDS011;37521;52.020;-1.740;2022-08-19T03:10:53;0.35;;;0.35;;
51451;SDS011;37521;52.020;-1.740;2022-08-19T03:13:22;0.75;;;0.40;;
51451;SDS011;37521;52.020;-1.740;2022-08-19T03:15:50;0.38;;;0.35;;
51451;SDS011;37521;52.020;-1.740;2022-08-19T03:18:18;3.47;;;0.50;;
51451;SDS011;37521;52.020;-1.740;2022-08-19T03:20:49;0.43;;;0.43;;
51451;SDS011;37521;52.020;-1.740;2022-08-19T03:23:21;0.32;;;0.32;;
51451;SDS011;37521;52.020;-1.740;2022-08-19T03:25:51;0.47;;;0.32;;
51451;SDS011;37521;52.020;-1.740;2022-08-19T03:28:41;0.50;;;0.50;;
51451;SDS011;37521;52.020;-1.740;2022-08-19T03:31:23;0.55;;;0.47;;
51451;SDS011;37521;52.020;-1.740;2022-08-19T03:34:13;0.50;;;0.50;;
51451;SDS011;37521;52.020;-1.740;2022-08-19T03:36:43;0.47;;;0.47;;
51451;SDS011;37521;52.020;-1.740;2022-08-19T03:39:13;0.32;;;0.32;;
51451;SDS011;37521;52.020;-1.740;2022-08-19T03:41:43;1.13;;;0.43;;
51451;SDS011;37521;52.020;-1.740;2022-08-19T03:44:16;0.40;;;0.40;;
51451;SDS011;37521;52.020;-1.740;2022-08-19T03:46:47;0.40;;;0.40;;
51451;SDS011;37521;52.020;-1.740;2022-08-19T03:49:18;1.58;;;0.70;;
51451;SDS011;37521;52.020;-1.740;2022-08-19T03:51:54;0.32;;;0.32;;
51451;SDS011;37521;52.020;-1.740;2022-08-19T03:54:23;0.40;;;0.40;;
51451;SDS011;37521;52.020;-1.740;2022-08-19T03:56:53;2.42;;;0.50;;
51451;SDS011;37521;52.020;-1.740;2022-08-19T03:59:26;0.35;;;0.35;;
51451;SDS011;37521;52.020;-1.740;2022-08-19T04:01:57;0.30;;;0.30;;
51451;SDS011;37521;52.020;-1.740;2022-08-19T04:04:27;0.85;;;0.40;;
51451;SDS011;37521;52.020;-1.740;2022-08-19T04:06:57;0.47;;;0.47;;
51451;SDS011;37521;52.020;-1.740;2022-08-19T04:09:25;0.80;;;0.40;;
51451;SDS011;37521;52.020;-1.740;2022-08-19T04:11:55;0.47;;;0.45;;
51451;SDS011;37521;52.020;-1.740;2022-08-19T04:14:27;0.30;;;0.30;;
51451;SDS011;37521;52.020;-1.740;2022-08-19T04:16:57;0.57;;;0.50;;
51451;SDS011;37521;52.020;-1.740;2022-08-19T04:19:26;0.68;;;0.57;;
51451;SDS011;37521;52.020;-1.740;2022-08-19T04:21:57;0.60;;;0.52;;
51451;SDS011;37521;52.020;-1.740;2022-08-19T04:24:27;0.55;;;0.43;;
51451;SDS011;37521;52.020;-1.740;2022-08-19T04:26:56;2.63;;;0.55;;
51451;SDS011;37521;52.020;-1.740;2022-08-19T04:29:25;2.05;;;0.40;;
51451;SDS011;37521;52.020;-1.740;2022-08-19T04:31:54;0.57;;;0.57;;
51451;SDS011;37521;52.020;-1.740;2022-08-19T04:34:24;0.50;;;0.47;;
51451;SDS011;37521;52.020;-1.740;2022-08-19T04:36:55;0.60;;;0.60;;
51451;SDS011;37521;52.020;-1.740;2022-08-19T04:39:25;0.57;;;0.52;;
51451;SDS011;37521;52.020;-1.740;2022-08-19T04:42:10;0.73;;;0.57;;
51451;SDS011;37521;52.020;-1.740;2022-08-19T04:44:58;0.50;;;0.50;;
51451;SDS011;37521;52.020;-1.740;2022-08-19T04:47:27;1.20;;;0.65;;
51451;SDS011;37521;52.020;-1.740;2022-08-19T04:50:17;1.08;;;0.55;;
51451;SDS011;37521;52.020;-1.740;2022-08-19T04:52:46;2.03;;;0.73;;
51451;SDS011;37521;52.020;-1.740;2022-08-19T04:55:14;1.10;;;0.70;;
51451;SDS011;37521;52.020;-1.740;2022-08-19T04:57:43;1.10;;;0.90;;
51451;SDS011;37521;52.020;-1.740;2022-08-19T05:00:13;0.90;;;0.80;;
51451;SDS011;37521;52.020;-1.740;2022-08-19T05:02:42;1.35;;;0.50;;
51451;SDS011;37521;52.020;-1.740;2022-08-19T05:05:10;0.63;;;0.57;;
51451;SDS011;37521;52.020;-1.740;2022-08-19T05:07:38;0.75;;;0.75;;
51451;SDS011;37521;52.020;-1.740;2022-08-19T05:10:07;0.73;;;0.73;;
51451;SDS011;37521;52.020;-1.740;2022-08-19T05:12:36;1.17;;;0.65;;
51451;SDS011;37521;52.020;-1.740;2022-08-19T05:15:05;1.50;;;0.88;;
51451;SDS011;37521;52.020;-1.740;2022-08-19T05:17:37;0.90;;;0.70;;
51451;SDS011;37521;52.020;-1.740;2022-08-19T05:20:25;0.77;;;0.77;;
51451;SDS011;37521;52.020;-1.740;2022-08-19T05:23:11;2.35;;;0.75;;
51451;SDS011;37521;52.020;-1.740;2022-08-19T05:25:47;0.85;;;0.85;;
51451;SDS011;37521;52.020;-1.740;2022-08-19T05:28:16;2.67;;;1.23;;
51451;SDS011;37521;52.020;-1.740;2022-08-19T05:30:45;0.80;;;0.80;;
51451;SDS011;37521;52.020;-1.740;2022-08-19T05:33:15;1.52;;;1.05;;
51451;SDS011;37521;52.020;-1.740;2022-08-19T05:35:44;0.70;;;0.70;;
51451;SDS011;37521;52.020;-1.740;2022-08-19T05:38:12;0.77;;;0.73;;
51451;SDS011;37521;52.020;-1.740;2022-08-19T05:40:40;0.98;;;0.55;;
51451;SDS011;37521;52.020;-1.740;2022-08-19T05:43:14;0.68;;;0.68;;
51451;SDS011;37521;52.020;-1.740;2022-08-19T05:45:43;0.65;;;0.60;;
51451;SDS011;37521;52.020;-1.740;2022-08-19T05:48:12;0.70;;;0.70;;
51451;SDS011;37521;52.020;-1.740;2022-08-19T05:50:42;1.88;;;0.90;;
51451;SDS011;37521;52.020;-1.740;2022-08-19T05:53:12;0.60;;;0.60;;
51451;SDS011;37521;52.020;-1.740;2022-08-19T05:55:41;0.70;;;0.70;;
51451;SDS011;37521;52.020;-1.740;2022-08-19T05:58:09;1.27;;;1.17;;
51451;SDS011;37521;52.020;-1.740;2022-08-19T06:00:37;1.75;;;0.95;;
51451;SDS011;37521;52.020;-1.740;2022-08-19T06:03:06;1.73;;;1.08;;
51451;SDS011;37521;52.020;-1.740;2022-08-19T06:05:39;2.85;;;0.95;;
51451;SDS011;37521;52.020;-1.740;2022-08-19T06:08:19;2.65;;;0.88;;
51451;SDS011;37521;52.020;-1.740;2022-08-19T06:11:11;2.90;;;1.48;;
51451;SDS011;37521;52.020;-1.740;2022-08-19T06:13:43;3.08;;;1.23;;
51451;SDS011;37521;52.020;-1.740;2022-08-19T06:16:17;3.47;;;1.42;;
51451;SDS011;37521;52.020;-1.740;2022-08-19T06:18:49;3.88;;;1.45;;
51451;SDS011;37521;52.020;-1.740;2022-08-19T06:21:19;6.03;;;1.92;;
51451;SDS011;37521;52.020;-1.740;2022-08-19T06:23:50;5.78;;;1.85;;
51451;SDS011;37521;52.020;-1.740;2022-08-19T06:26:19;4.03;;;1.30;;
51451;SDS011;37521;52.020;-1.740;2022-08-19T06:28:48;2.40;;;1.23;;
51451;SDS011;37521;52.020;-1.740;2022-08-19T06:31:17;3.40;;;1.35;;
51451;SDS011;37521;52.020;-1.740;2022-08-19T06:33:48;8.45;;;2.20;;
51451;SDS011;37521;52.020;-1.740;2022-08-19T06:36:18;3.30;;;1.30;;
51451;SDS011;37521;52.020;-1.740;2022-08-19T06:38:52;4.95;;;1.73;;
51451;SDS011;37521;52.020;-1.740;2022-08-19T06:41:21;2.13;;;0.95;;
51451;SDS011;37521;52.020;-1.740;2022-08-19T06:43:49;2.28;;;1.08;;
51451;SDS011;37521;52.020;-1.740;2022-08-19T06:46:19;5.82;;;1.38;;
51451;SDS011;37521;52.020;-1.740;2022-08-19T06:48:48;3.30;;;1.33;;
51451;SDS011;37521;52.020;-1.740;2022-08-19T06:51:20;2.67;;;1.33;;
51451;SDS011;37521;52.020;-1.740;2022-08-19T06:53:51;2.38;;;0.80;;
51451;SDS011;37521;52.020;-1.740;2022-08-19T06:56:23;5.53;;;1.90;;
51451;SDS011;37521;52.020;-1.740;2022-08-19T06:58:57;3.47;;;1.17;;
51451;SDS011;37521;52.020;-1.740;2022-08-19T07:01:26;2.22;;;0.90;;
51451;SDS011;37521;52.020;-1.740;2022-08-19T07:03:54;4.78;;;1.20;;
51451;SDS011;37521;52.020;-1.740;2022-08-19T07:06:23;3.35;;;1.40;;
51451;SDS011;37521;52.020;-1.740;2022-08-19T07:09:11;3.47;;;0.82;;
51451;SDS011;37521;52.020;-1.740;2022-08-19T07:11:45;3.60;;;1.38;;
51451;SDS011;37521;52.020;-1.740;2022-08-19T07:14:15;2.92;;;1.23;;
51451;SDS011;37521;52.020;-1.740;2022-08-19T07:16:46;6.82;;;1.20;;
51451;SDS011;37521;52.020;-1.740;2022-08-19T07:19:15;2.92;;;1.20;;
51451;SDS011;37521;52.020;-1.740;2022-08-19T07:21:45;5.35;;;1.42;;
51451;SDS011;37521;52.020;-1.740;2022-08-19T07:24:17;6.07;;;0.93;;
51451;SDS011;37521;52.020;-1.740;2022-08-19T07:26:46;5.75;;;1.63;;
51451;SDS011;37521;52.020;-1.740;2022-08-19T07:29:17;3.85;;;1.67;;
51451;SDS011;37521;52.020;-1.740;2022-08-19T07:31:51;4.20;;;1.02;;
51451;SDS011;37521;52.020;-1.740;2022-08-19T07:34:23;5.05;;;1.73;;
51451;SDS011;37521;52.020;-1.740;2022-08-19T07:36:52;6.63;;;1.33;;
51451;SDS011;37521;52.020;-1.740;2022-08-19T07:39:25;9.30;;;1.80;;
51451;SDS011;37521;52.020;-1.740;2022-08-19T07:41:55;2.25;;;1.05;;
51451;SDS011;37521;52.020;-1.740;2022-08-19T07:44:25;3.28;;;0.90;;
51451;SDS011;37521;52.020;-1.740;2022-08-19T07:46:54;4.68;;;1.27;;
51451;SDS011;37521;52.020;-1.740;2022-08-19T07:49:24;6.57;;;1.05;;
51451;SDS011;37521;52.020;-1.740;2022-08-19T07:51:53;6.18;;;1.33;;
51451;SDS011;37521;52.020;-1.740;2022-08-19T07:54:25;5.18;;;1.17;;
51451;SDS011;37521;52.020;-1.740;2022-08-19T07:56:54;3.22;;;1.10;;
51451;SDS011;37521;52.020;-1.740;2022-08-19T07:59:23;8.43;;;1.73;;
51451;SDS011;37521;52.020;-1.740;2022-08-19T08:01:52;6.10;;;1.23;;
51451;SDS011;37521;52.020;-1.740;2022-08-19T08:04:20;3.83;;;1.35;;
51451;SDS011;37521;52.020;-1.740;2022-08-19T08:07:07;6.10;;;1.40;;
51451;SDS011;37521;52.020;-1.740;2022-08-19T08:09:58;5.47;;;1.13;;
51451;SDS011;37521;52.020;-1.740;2022-08-19T08:12:31;9.43;;;1.42;;
51451;SDS011;37521;52.020;-1.740;2022-08-19T08:15:03;7.50;;;1.88;;
51451;SDS011;37521;52.020;-1.740;2022-08-19T08:17:38;6.68;;;1.15;;
51451;SDS011;37521;52.020;-1.740;2022-08-19T08:20:15;3.40;;;1.23;;
51451;SDS011;37521;52.020;-1.740;2022-08-19T08:22:44;3.05;;;0.88;;
51451;SDS011;37521;52.020;-1.740;2022-08-19T08:25:33;8.52;;;1.20;;
51451;SDS011;37521;52.020;-1.740;2022-08-19T08:28:03;3.38;;;1.27;;
51451;SDS011;37521;52.020;-1.740;2022-08-19T08:30:37;5.18;;;1.35;;
51451;SDS011;37521;52.020;-1.740;2022-08-19T08:33:10;3.53;;;0.70;;
51451;SDS011;37521;52.020;-1.740;2022-08-19T08:35:39;4.63;;;0.98;;
51451;SDS011;37521;52.020;-1.740;2022-08-19T08:38:09;5.00;;;0.82;;
51451;SDS011;37521;52.020;-1.740;2022-08-19T08:40:42;1.88;;;1.00;;
51451;SDS011;37521;52.020;-1.740;2022-08-19T08:43:18;2.10;;;0.73;;
51451;SDS011;37521;52.020;-1.740;2022-08-19T08:45:51;8.98;;;1.48;;
51451;SDS011;37521;52.020;-1.740;2022-08-19T08:48:24;5.50;;;1.08;;
51451;SDS011;37521;52.020;-1.740;2022-08-19T08:51:00;8.07;;;1.25;;
51451;SDS011;37521;52.020;-1.740;2022-08-19T08:53:34;9.25;;;0.82;;
51451;SDS011;37521;52.020;-1.740;2022-08-19T08:56:09;7.65;;;1.40;;
51451;SDS011;37521;52.020;-1.740;2022-08-19T08:58:47;4.53;;;1.10;;
51451;SDS011;37521;52.020;-1.740;2022-08-19T09:01:22;6.35;;;1.35;;
51451;SDS011;37521;52.020;-1.740;2022-08-19T09:03:55;2.92;;;1.20;;
51451;SDS011;37521;52.020;-1.740;2022-08-19T09:09:10;1.60;;;0.60;;
51451;SDS011;37521;52.020;-1.740;2022-08-19T09:11:50;4.57;;;1.38;;
51451;SDS011;37521;52.020;-1.740;2022-08-19T09:14:32;2.17;;;0.73;;
51451;SDS011;37521;52.020;-1.740;2022-08-19T09:17:20;7.90;;;0.93;;
51451;SDS011;37521;52.020;-1.740;2022-08-19T09:19:58;5.85;;;1.00;;
51451;SDS011;37521;52.020;-1.740;2022-08-19T09:22:34;4.28;;;0.90;;
51451;SDS011;37521;52.020;-1.740;2022-08-19T09:25:03;2.40;;;0.65;;
51451;SDS011;37521;52.020;-1.740;2022-08-19T09:27:35;4.47;;;0.88;;
51451;SDS011;37521;52.020;-1.740;2022-08-19T09:30:20;2.97;;;0.77;;
51451;SDS011;37521;52.020;-1.740;2022-08-19T09:32:51;3.42;;;1.02;;
51451;SDS011;37521;52.020;-1.740;2022-08-19T09:35:20;1.58;;;1.10;;
51451;SDS011;37521;52.020;-1.740;2022-08-19T09:37:50;2.10;;;0.85;;
51451;SDS011;37521;52.020;-1.740;2022-08-19T09:40:25;2.80;;;1.10;;
51451;SDS011;37521;52.020;-1.740;2022-08-19T09:42:57;1.77;;;0.73;;
51451;SDS011;37521;52.020;-1.740;2022-08-19T09:45:27;1.35;;;0.93;;
51451;SDS011;37521;52.020;-1.740;2022-08-19T09:47:55;5.55;;;1.13;;
51451;SDS011;37521;52.020;-1.740;2022-08-19T09:50:24;4.65;;;0.75;;
51451;SDS011;37521;52.020;-1.740;2022-08-19T09:52:52;4.00;;;0.93;;
51451;SDS011;37521;52.020;-1.740;2022-08-19T09:55:23;4.97;;;1.17;;
51451;SDS011;37521;52.020;-1.740;2022-08-19T09:58:00;4.28;;;0.65;;
51451;SDS011;37521;52.020;-1.740;2022-08-19T10:00:29;4.30;;;1.27;;
51451;SDS011;37521;52.020;-1.740;2022-08-19T10:02:58;2.03;;;0.75;;
51451;SDS011;37521;52.020;-1.740;2022-08-19T10:05:27;4.55;;;1.02;;
51451;SDS011;37521;52.020;-1.740;2022-08-19T10:08:14;5.72;;;0.85;;
51451;SDS011;37521;52.020;-1.740;2022-08-19T10:10:46;7.90;;;1.00;;
51451;SDS011;37521;52.020;-1.740;2022-08-19T10:13:17;2.25;;;0.98;;
51451;SDS011;37521;52.020;-1.740;2022-08-19T10:15:52;2.63;;;0.63;;
51451;SDS011;37521;52.020;-1.740;2022-08-19T10:18:23;2.42;;;0.80;;
51451;SDS011;37521;52.020;-1.740;2022-08-19T10:20:52;2.45;;;0.80;;
51451;SDS011;37521;52.020;-1.740;2022-08-19T10:23:35;3.05;;;1.17;;
51451;SDS011;37521;52.020;-1.740;2022-08-19T10:26:04;4.93;;;1.17;;
51451;SDS011;37521;52.020;-1.740;2022-08-19T10:28:34;1.25;;;0.93;;
51451;SDS011;37521;52.020;-1.740;2022-08-19T10:31:05;3.85;;;1.13;;
51451;SDS011;37521;52.020;-1.740;2022-08-19T10:33:35;2.20;;;1.05;;
51451;SDS011;37521;52.020;-1.740;2022-08-19T10:36:20;2.60;;;0.80;;
51451;SDS011;37521;52.020;-1.740;2022-08-19T10:38:51;5.03;;;1.42;;
51451;SDS011;37521;52.020;-1.740;2022-08-19T10:41:25;3.70;;;0.85;;
51451;SDS011;37521;52.020;-1.740;2022-08-19T10:43:57;5.45;;;1.35;;
51451;SDS011;37521;52.020;-1.740;2022-08-19T10:46:30;2.60;;;0.73;;
51451;SDS011;37521;52.020;-1.740;2022-08-19T10:48:59;6.45;;;1.17;;
51451;SDS011;37521;52.020;-1.740;2022-08-19T10:51:29;4.38;;;1.40;;
51451;SDS011;37521;52.020;-1.740;2022-08-19T10:54:15;1.48;;;0.60;;
51451;SDS011;37521;52.020;-1.740;2022-08-19T10:56:58;5.07;;;1.00;;
51451;SDS011;37521;52.020;-1.740;2022-08-19T10:59:27;4.72;;;1.27;;
51451;SDS011;37521;52.020;-1.740;2022-08-19T11:02:02;3.72;;;0.90;;
51451;SDS011;37521;52.020;-1.740;2022-08-19T11:04:33;2.33;;;0.98;;
51451;SDS011;37521;52.020;-1.740;2022-08-19T11:07:01;1.65;;;0.95;;
51451;SDS011;37521;52.020;-1.740;2022-08-19T11:09:30;1.88;;;0.73;;
51451;SDS011;37521;52.020;-1.740;2022-08-19T11:12:00;2.63;;;0.73;;
51451;SDS011;37521;52.020;-1.740;2022-08-19T11:14:31;4.32;;;1.10;;
51451;SDS011;37521;52.020;-1.740;2022-08-19T11:17:01;6.18;;;1.00;;
51451;SDS011;37521;52.020;-1.740;2022-08-19T11:19:31;4.78;;;1.02;;
51451;SDS011;37521;52.020;-1.740;2022-08-19T11:22:00;2.45;;;0.93;;
51451;SDS011;37521;52.020;-1.740;2022-08-19T11:24:30;2.88;;;0.60;;
51451;SDS011;37521;52.020;-1.740;2022-08-19T11:27:00;1.60;;;0.68;;
51451;SDS011;37521;52.020;-1.740;2022-08-19T11:29:32;3.22;;;1.25;;
51451;SDS011;37521;52.020;-1.740;2022-08-19T11:32:03;5.05;;;1.15;;
51451;SDS011;37521;52.020;-1.740;2022-08-19T11:34:33;5.00;;;0.90;;
51451;SDS011;37521;52.020;-1.740;2022-08-19T11:37:02;4.47;;;0.90;;
51451;SDS011;37521;52.020;-1.740;2022-08-19T11:39:32;4.63;;;0.63;;
51451;SDS011;37521;52.020;-1.740;2022-08-19T11:42:04;2.58;;;1.20;;
51451;SDS011;37521;52.020;-1.740;2022-08-19T11:44:55;6.35;;;0.88;;
51451;SDS011;37521;52.020;-1.740;2022-08-19T11:47:24;4.20;;;0.82;;
51451;SDS011;37521;52.020;-1.740;2022-08-19T11:49:52;1.65;;;0.75;;
51451;SDS011;37521;52.020;-1.740;2022-08-19T11:52:20;7.30;;;1.17;;
51451;SDS011;37521;52.020;-1.740;2022-08-19T11:54:49;2.55;;;0.73;;
51451;SDS011;37521;52.020;-1.740;2022-08-19T11:57:17;3.85;;;1.02;;
51451;SDS011;37521;52.020;-1.740;2022-08-19T11:59:47;5.45;;;1.42;;
51451;SDS011;37521;52.020;-1.740;2022-08-19T12:02:18;5.35;;;0.75;;
51451;SDS011;37521;52.020;-1.740;2022-08-19T12:04:48;2.00;;;0.52;;
51451;SDS011;37521;52.020;-1.740;2022-08-19T12:07:16;3.97;;;1.02;;
51451;SDS011;37521;52.020;-1.740;2022-08-19T12:09:45;2.25;;;1.80;;
51451;SDS011;37521;52.020;-1.740;2022-08-19T12:12:14;2.05;;;0.80;;
51451;SDS011;37521;52.020;-1.740;2022-08-19T12:14:43;7.47;;;0.98;;
51451;SDS011;37521;52.020;-1.740;2022-08-19T12:17:13;5.43;;;0.80;;
51451;SDS011;37521;52.020;-1.740;2022-08-19T12:19:43;4.80;;;0.80;;
51451;SDS011;37521;52.020;-1.740;2022-08-19T12:22:11;4.10;;;0.82;;
51451;SDS011;37521;52.020;-1.740;2022-08-19T12:24:39;1.35;;;0.63;;
51451;SDS011;37521;52.020;-1.740;2022-08-19T12:27:07;3.05;;;1.00;;
51451;SDS011;37521;52.020;-1.740;2022-08-19T12:29:38;4.00;;;0.90;;
51451;SDS011;37521;52.020;-1.740;2022-08-19T12:32:08;4.03;;;1.13;;
51451;SDS011;37521;52.020;-1.740;2022-08-19T12:34:37;1.70;;;0.65;;
51451;SDS011;37521;52.020;-1.740;2022-08-19T12:37:08;5.90;;;1.02;;
51451;SDS011;37521;52.020;-1.740;2022-08-19T12:39:38;4.07;;;1.65;;
51451;SDS011;37521;52.020;-1.740;2022-08-19T12:42:09;2.60;;;0.90;;
51451;SDS011;37521;52.020;-1.740;2022-08-19T12:44:38;2.25;;;0.82;;
51451;SDS011;37521;52.020;-1.740;2022-08-19T12:47:08;1.73;;;0.52;;
51451;SDS011;37521;52.020;-1.740;2022-08-19T12:49:38;1.63;;;0.65;;
51451;SDS011;37521;52.020;-1.740;2022-08-19T12:52:22;1.40;;;0.47;;
51451;SDS011;37521;52.020;-1.740;2022-08-19T12:54:51;1.15;;;0.70;;
51451;SDS011;37521;52.020;-1.740;2022-08-19T12:57:22;2.35;;;0.98;;
51451;SDS011;37521;52.020;-1.740;2022-08-19T12:59:59;3.80;;;0.65;;
51451;SDS011;37521;52.020;-1.740;2022-08-19T13:02:31;6.67;;;1.10;;
51451;SDS011;37521;52.020;-1.740;2022-08-19T13:05:06;1.63;;;0.65;;
51451;SDS011;37521;52.020;-1.740;2022-08-19T13:07:39;6.10;;;0.70;;
51451;SDS011;37521;52.020;-1.740;2022-08-19T13:10:11;2.72;;;0.80;;
51451;SDS011;37521;52.020;-1.740;2022-08-19T13:12:42;3.35;;;0.70;;
51451;SDS011;37521;52.020;-1.740;2022-08-19T13:15:11;3.08;;;0.85;;
51451;SDS011;37521;52.020;-1.740;2022-08-19T13:17:40;2.33;;;0.60;;
51451;SDS011;37521;52.020;-1.740;2022-08-19T13:20:10;5.13;;;1.05;;
51451;SDS011;37521;52.020;-1.740;2022-08-19T13:22:40;2.95;;;0.77;;
51451;SDS011;37521;52.020;-1.740;2022-08-19T13:25:09;0.98;;;0.47;;
51451;SDS011;37521;52.020;-1.740;2022-08-19T13:27:38;4.25;;;1.00;;
51451;SDS011;37521;52.020;-1.740;2022-08-19T13:30:08;1.58;;;0.90;;
51451;SDS011;37521;52.020;-1.740;2022-08-19T13:32:55;1.40;;;0.47;;
51451;SDS011;37521;52.020;-1.740;2022-08-19T13:35:43;1.25;;;0.73;;
51451;SDS011;37521;52.020;-1.740;2022-08-19T13:38:16;1.80;;;0.85;;
51451;SDS011;37521;52.020;-1.740;2022-08-19T13:40:47;2.30;;;0.75;;
51451;SDS011;37521;52.020;-1.740;2022-08-19T13:43:17;2.92;;;0.77;;
51451;SDS011;37521;52.020;-1.740;2022-08-19T13:45:50;3.67;;;0.93;;
51451;SDS011;37521;52.020;-1.740;2022-08-19T13:48:23;1.35;;;0.70;;
51451;SDS011;37521;52.020;-1.740;2022-08-19T13:50:53;3.30;;;1.27;;
51451;SDS011;37521;52.020;-1.740;2022-08-19T13:53:23;1.92;;;0.73;;
51451;SDS011;37521;52.020;-1.740;2022-08-19T13:55:52;2.95;;;0.80;;
51451;SDS011;37521;52.020;-1.740;2022-08-19T13:58:20;2.05;;;0.60;;
51451;SDS011;37521;52.020;-1.740;2022-08-19T14:00:50;2.38;;;0.50;;
51451;SDS011;37521;52.020;-1.740;2022-08-19T14:03:18;1.50;;;0.60;;
51451;SDS011;37521;52.020;-1.740;2022-08-19T14:05:46;2.03;;;0.73;;
51451;SDS011;37521;52.020;-1.740;2022-08-19T14:08:16;2.45;;;0.90;;
51451;SDS011;37521;52.020;-1.740;2022-08-19T14:10:46;1.60;;;0.45;;
51451;SDS011;37521;52.020;-1.740;2022-08-19T14:13:16;1.92;;;0.50;;
51451;SDS011;37521;52.020;-1.740;2022-08-19T14:15:47;2.70;;;0.85;;
51451;SDS011;37521;52.020;-1.740;2022-08-19T14:18:17;1.40;;;0.93;;
51451;SDS011;37521;52.020;-1.740;2022-08-19T14:20:45;3.65;;;1.15;;
51451;SDS011;37521;52.020;-1.740;2022-08-19T14:23:14;1.83;;;0.70;;
51451;SDS011;37521;52.020;-1.740;2022-08-19T14:25:42;3.00;;;0.55;;
51451;SDS011;37521;52.020;-1.740;2022-08-19T14:28:12;3.08;;;0.60;;
51451;SDS011;37521;52.020;-1.740;2022-08-19T14:30:40;1.48;;;0.60;;
51451;SDS011;37521;52.020;-1.740;2022-08-19T14:33:11;1.55;;;0.45;;
51451;SDS011;37521;52.020;-1.740;2022-08-19T14:35:40;3.08;;;0.95;;
51451;SDS011;37521;52.020;-1.740;2022-08-19T14:38:15;1.42;;;0.50;;
51451;SDS011;37521;52.020;-1.740;2022-08-19T14:40:53;3.03;;;0.98;;
51451;SDS011;37521;52.020;-1.740;2022-08-19T14:43:24;1.60;;;0.80;;
51451;SDS011;37521;52.020;-1.740;2022-08-19T14:45:53;3.42;;;0.60;;
51451;SDS011;37521;52.020;-1.740;2022-08-19T14:48:24;1.75;;;0.52;;
51451;SDS011;37521;52.020;-1.740;2022-08-19T14:50:54;3.15;;;0.75;;
51451;SDS011;37521;52.020;-1.740;2022-08-19T14:53:23;2.38;;;0.60;;
51451;SDS011;37521;52.020;-1.740;2022-08-19T14:55:51;2.60;;;0.60;;
51451;SDS011;37521;52.020;-1.740;2022-08-19T14:58:19;2.15;;;0.57;;
51451;SDS011;37521;52.020;-1.740;2022-08-19T15:00:57;2.17;;;0.60;;
51451;SDS011;37521;52.020;-1.740;2022-08-19T15:03:26;0.63;;;0.38;;